sensor_id;sensor_type;location;lat;lon;timestamp;pressure;altitude;pressure_sealevel;temperature;humidity
68329;BME280;55182;56.864;60.554;2023-02-02T00:00:19;77887.44;;;-143.60;72.18
68329;BME280;55182;56.864;60.554;2023-02-02T00:02:44;77901.50;;;-143.60;72.47
68329;BME280;55182;56.864;60.554;2023-02-02T00:05:10;77903.53;;;-143.60;72.71
68329;BME280;55182;56.864;60.554;2023-02-02T00:07:35;77917.59;;;-143.60;73.29
68329;BME280;55182;56.864;60.554;2023-02-02T00:10:01;77925.63;;;-143.60;73.70
68329;BME280;55182;56.864;60.554;2023-02-02T00:12:26;77941.72;;;-143.60;73.88
68329;BME280;55182;56.864;60.554;2023-02-02T00:14:51;77943.72;;;-143.60;73.83
68329;BME280;55182;56.864;60.554;2023-02-02T00:17:17;77949.75;;;-143.60;74.19
68329;BME280;55182;56.864;60.554;2023-02-02T00:19:42;77947.75;;;-143.60;74.62
68329;BME280;55182;56.864;60.554;2023-02-02T00:22:08;77953.78;;;-143.60;75.10
68329;BME280;55182;56.864;60.554;2023-02-02T00:24:34;77961.81;;;-143.60;75.13
68329;BME280;55182;56.864;60.554;2023-02-02T00:26:59;77967.84;;;-143.60;75.66
68329;BME280;55182;56.864;60.554;2023-02-02T00:29:26;77967.84;;;-143.60;76.22
68329;BME280;55182;56.864;60.554;2023-02-02T00:31:52;77961.81;;;-143.60;76.62
68329;BME280;55182;56.864;60.554;2023-02-02T00:34:17;77959.81;;;-143.60;76.15
68329;BME280;55182;56.864;60.554;2023-02-02T00:36:45;77943.72;;;-143.60;75.16
68329;BME280;55182;56.864;60.554;2023-02-02T00:39:13;77929.66;;;-143.60;75.02
68329;BME280;55182;56.864;60.554;2023-02-02T00:41:39;77917.59;;;-143.60;74.33
68329;BME280;55182;56.864;60.554;2023-02-02T00:44:04;77903.53;;;-143.60;73.80
68329;BME280;55182;56.864;60.554;2023-02-02T00:46:30;77913.56;;;-143.60;73.46
68329;BME280;55182;56.864;60.554;2023-02-02T00:48:55;77917.59;;;-143.60;73.68
68329;BME280;55182;56.864;60.554;2023-02-02T00:51:21;77913.56;;;-143.60;73.54
68329;BME280;55182;56.864;60.554;2023-02-02T00:53:46;77907.53;;;-143.60;73.75
68329;BME280;55182;56.864;60.554;2023-02-02T00:56:12;77911.56;;;-143.60;73.53
68329;BME280;55182;56.864;60.554;2023-02-02T00:58:37;77915.59;;;-143.60;73.32
68329;BME280;55182;56.864;60.554;2023-02-02T01:01:03;77917.59;;;-143.60;73.36
68329;BME280;55182;56.864;60.554;2023-02-02T01:03:28;77915.59;;;-143.60;73.28
68329;BME280;55182;56.864;60.554;2023-02-02T01:05:54;77923.63;;;-143.60;72.86
68329;BME280;55182;56.864;60.554;2023-02-02T01:08:20;77943.72;;;-143.60;72.40
68329;BME280;55182;56.864;60.554;2023-02-02T01:10:45;77963.84;;;-143.60;72.53
68329;BME280;55182;56.864;60.554;2023-02-02T01:13:11;77985.94;;;-143.60;72.83
68329;BME280;55182;56.864;60.554;2023-02-02T01:15:36;77993.97;;;-143.60;73.29
68329;BME280;55182;56.864;60.554;2023-02-02T01:18:02;77987.97;;;-143.60;73.41
68329;BME280;55182;56.864;60.554;2023-02-02T01:20:29;77996.00;;;-143.60;73.74
68329;BME280;55182;56.864;60.554;2023-02-02T01:22:54;78000.03;;;-143.60;73.62
68329;BME280;55182;56.864;60.554;2023-02-02T01:25:20;78006.06;;;-143.60;73.81
68329;BME280;55182;56.864;60.554;2023-02-02T01:27:46;78026.16;;;-143.60;74.07
68329;BME280;55182;56.864;60.554;2023-02-02T01:30:11;78048.28;;;-143.60;74.18
68329;BME280;55182;56.864;60.554;2023-02-02T01:32:37;78056.31;;;-143.60;74.41
68329;BME280;55182;56.864;60.554;2023-02-02T01:35:03;78068.38;;;-143.60;74.74
68329;BME280;55182;56.864;60.554;2023-02-02T01:37:29;78078.44;;;-143.60;74.90
68329;BME280;55182;56.864;60.554;2023-02-02T01:39:54;78084.47;;;-143.60;75.47
68329;BME280;55182;56.864;60.554;2023-02-02T01:42:21;78100.53;;;-143.60;75.86
68329;BME280;55182;56.864;60.554;2023-02-02T01:44:59;78100.53;;;-143.60;76.26
68329;BME280;55182;56.864;60.554;2023-02-02T01:47:28;78112.59;;;-143.60;76.38
68329;BME280;55182;56.864;60.554;2023-02-02T01:49:55;78102.56;;;-143.60;76.77
68329;BME280;55182;56.864;60.554;2023-02-02T01:52:21;78090.50;;;-143.60;76.89
68329;BME280;55182;56.864;60.554;2023-02-02T01:54:52;78072.41;;;-143.60;77.13
68329;BME280;55182;56.864;60.554;2023-02-02T01:59:54;78080.44;;;-143.60;77.06
68329;BME280;55182;56.864;60.554;2023-02-02T02:02:22;78092.50;;;-143.60;76.91
68329;BME280;55182;56.864;60.554;2023-02-02T02:04:48;78100.53;;;-143.60;77.06
68329;BME280;55182;56.864;60.554;2023-02-02T02:07:14;78108.59;;;-143.60;77.13
68329;BME280;55182;56.864;60.554;2023-02-02T02:09:40;78110.59;;;-143.60;77.12
68329;BME280;55182;56.864;60.554;2023-02-02T02:12:12;78110.59;;;-143.60;77.34
68329;BME280;55182;56.864;60.554;2023-02-02T02:14:39;78104.56;;;-143.60;77.72
68329;BME280;55182;56.864;60.554;2023-02-02T02:22:13;78116.63;;;-143.60;78.64
68329;BME280;55182;56.864;60.554;2023-02-02T02:35:01;78118.63;;;-143.60;79.41
68329;BME280;55182;56.864;60.554;2023-02-02T02:37:31;78124.66;;;-143.60;79.19
68329;BME280;55182;56.864;60.554;2023-02-02T02:40:43;78132.72;;;-143.60;79.40
68329;BME280;55182;56.864;60.554;2023-02-02T02:42:53;78140.75;;;-143.60;79.31
68329;BME280;55182;56.864;60.554;2023-02-02T02:45:21;78146.78;;;-143.60;79.60
68329;BME280;55182;56.864;60.554;2023-02-02T02:47:48;78148.78;;;-143.60;80.00
68329;BME280;55182;56.864;60.554;2023-02-02T02:50:14;78136.72;;;-143.60;80.51
68329;BME280;55182;56.864;60.554;2023-02-02T02:52:40;78122.66;;;-143.60;80.33
68329;BME280;55182;56.864;60.554;2023-02-02T02:55:06;78114.63;;;-143.60;80.28
68329;BME280;55182;56.864;60.554;2023-02-02T02:57:56;78108.59;;;-143.60;79.68
68329;BME280;55182;56.864;60.554;2023-02-02T03:11:15;78176.94;;;-143.60;76.77
68329;BME280;55182;56.864;60.554;2023-02-02T03:13:41;78197.03;;;-143.60;76.71
68329;BME280;55182;56.864;60.554;2023-02-02T03:16:07;78203.06;;;-143.60;77.37
68329;BME280;55182;56.864;60.554;2023-02-02T03:18:34;78207.09;;;-143.60;77.95
68329;BME280;55182;56.864;60.554;2023-02-02T03:20:59;78211.13;;;-143.60;78.26
68329;BME280;55182;56.864;60.554;2023-02-02T03:23:25;78213.13;;;-143.60;78.51
68329;BME280;55182;56.864;60.554;2023-02-02T03:25:50;78219.16;;;-143.60;78.45
68329;BME280;55182;56.864;60.554;2023-02-02T03:28:16;78231.22;;;-143.60;78.60
68329;BME280;55182;56.864;60.554;2023-02-02T03:30:42;78239.25;;;-143.60;78.58
68329;BME280;55182;56.864;60.554;2023-02-02T03:33:10;78239.25;;;-143.60;78.85
68329;BME280;55182;56.864;60.554;2023-02-02T03:35:36;78229.22;;;-143.60;79.49
68329;BME280;55182;56.864;60.554;2023-02-02T03:38:01;78233.22;;;-143.60;79.82
68329;BME280;55182;56.864;60.554;2023-02-02T03:40:27;78237.25;;;-143.60;79.96
68329;BME280;55182;56.864;60.554;2023-02-02T03:42:53;78237.25;;;-143.60;79.89
68329;BME280;55182;56.864;60.554;2023-02-02T03:45:18;78245.28;;;-143.60;80.11
68329;BME280;55182;56.864;60.554;2023-02-02T03:47:44;78245.28;;;-143.60;80.33
68329;BME280;55182;56.864;60.554;2023-02-02T03:50:09;78245.28;;;-143.60;80.80
68329;BME280;55182;56.864;60.554;2023-02-02T03:52:35;78249.31;;;-143.60;80.98
68329;BME280;55182;56.864;60.554;2023-02-02T03:55:00;78257.34;;;-143.60;80.91
68329;BME280;55182;56.864;60.554;2023-02-02T03:57:26;78255.34;;;-143.60;81.23
68329;BME280;55182;56.864;60.554;2023-02-02T03:59:52;78253.34;;;-143.60;81.16
68329;BME280;55182;56.864;60.554;2023-02-02T04:02:17;78257.34;;;-143.60;81.16
68329;BME280;55182;56.864;60.554;2023-02-02T04:04:43;78257.34;;;-143.60;81.50
68329;BME280;55182;56.864;60.554;2023-02-02T04:07:08;78245.28;;;-143.60;81.55
68329;BME280;55182;56.864;60.554;2023-02-02T04:09:33;78253.34;;;-143.60;81.00
68329;BME280;55182;56.864;60.554;2023-02-02T04:11:59;78245.28;;;-143.60;81.12
68329;BME280;55182;56.864;60.554;2023-02-02T04:14:24;78245.28;;;-143.60;80.54
68329;BME280;55182;56.864;60.554;2023-02-02T04:16:50;78241.28;;;-143.60;80.04
68329;BME280;55182;56.864;60.554;2023-02-02T04:19:15;78231.22;;;-143.60;79.97
68329;BME280;55182;56.864;60.554;2023-02-02T04:21:41;78237.25;;;-143.60;79.34
68329;BME280;55182;56.864;60.554;2023-02-02T04:24:09;78245.28;;;-143.60;78.98
68329;BME280;55182;56.864;60.554;2023-02-02T04:26:35;78257.34;;;-143.60;78.51
68329;BME280;55182;56.864;60.554;2023-02-02T04:29:00;78257.34;;;-143.60;78.46
68329;BME280;55182;56.864;60.554;2023-02-02T04:31:26;78267.41;;;-143.60;78.30
68329;BME280;55182;56.864;60.554;2023-02-02T04:33:51;78269.41;;;-143.60;78.41
68329;BME280;55182;56.864;60.554;2023-02-02T04:36:17;78273.44;;;-143.60;78.46
68329;BME280;55182;56.864;60.554;2023-02-02T04:38:42;78289.53;;;-143.60;78.60
68329;BME280;55182;56.864;60.554;2023-02-02T04:41:08;78293.56;;;-143.60;78.68
68329;BME280;55182;56.864;60.554;2023-02-02T04:43:34;78283.50;;;-143.60;78.51
68329;BME280;55182;56.864;60.554;2023-02-02T04:46:00;78287.50;;;-143.60;78.60
68329;BME280;55182;56.864;60.554;2023-02-02T04:48:25;78291.53;;;-143.60;78.64
68329;BME280;55182;56.864;60.554;2023-02-02T04:50:56;78281.47;;;-143.60;79.01
68329;BME280;55182;56.864;60.554;2023-02-02T04:53:22;78289.53;;;-143.60;78.98
68329;BME280;55182;56.864;60.554;2023-02-02T04:55:48;78287.50;;;-143.60;78.86
68329;BME280;55182;56.864;60.554;2023-02-02T04:58:13;78289.53;;;-143.60;78.96
68329;BME280;55182;56.864;60.554;2023-02-02T05:00:39;78283.50;;;-143.60;79.03
68329;BME280;55182;56.864;60.554;2023-02-02T05:03:04;78271.44;;;-143.60;78.95
68329;BME280;55182;56.864;60.554;2023-02-02T05:05:30;78265.41;;;-143.60;78.86
68329;BME280;55182;56.864;60.554;2023-02-02T05:07:56;78253.34;;;-143.60;79.19
68329;BME280;55182;56.864;60.554;2023-02-02T05:10:21;78237.25;;;-143.60;79.16
68329;BME280;55182;56.864;60.554;2023-02-02T05:12:46;78221.16;;;-143.60;78.77
68329;BME280;55182;56.864;60.554;2023-02-02T05:15:12;78217.16;;;-143.60;78.28
68329;BME280;55182;56.864;60.554;2023-02-02T05:17:38;78211.13;;;-143.60;77.93
68329;BME280;55182;56.864;60.554;2023-02-02T05:20:03;78215.13;;;-143.60;77.55
68329;BME280;55182;56.864;60.554;2023-02-02T05:22:29;78205.09;;;-143.60;77.39
68329;BME280;55182;56.864;60.554;2023-02-02T05:24:54;78209.09;;;-143.60;77.23
68329;BME280;55182;56.864;60.554;2023-02-02T05:27:20;78205.09;;;-143.60;76.74
68329;BME280;55182;56.864;60.554;2023-02-02T05:29:46;78205.09;;;-143.60;76.45
68329;BME280;55182;56.864;60.554;2023-02-02T05:32:12;78207.09;;;-143.60;75.93
68329;BME280;55182;56.864;60.554;2023-02-02T05:34:37;78205.09;;;-143.60;75.78
68329;BME280;55182;56.864;60.554;2023-02-02T05:37:03;78201.06;;;-143.60;75.84
68329;BME280;55182;56.864;60.554;2023-02-02T05:39:28;78197.03;;;-143.60;75.67
68329;BME280;55182;56.864;60.554;2023-02-02T05:41:54;78189.00;;;-143.60;75.64
68329;BME280;55182;56.864;60.554;2023-02-02T05:44:20;78189.00;;;-143.60;75.58
68329;BME280;55182;56.864;60.554;2023-02-02T05:46:46;78182.97;;;-143.60;75.77
68329;BME280;55182;56.864;60.554;2023-02-02T05:49:12;78174.94;;;-143.60;75.87
68329;BME280;55182;56.864;60.554;2023-02-02T05:51:48;78162.88;;;-143.60;75.70
68329;BME280;55182;56.864;60.554;2023-02-02T05:54:15;78156.84;;;-143.60;75.84
68329;BME280;55182;56.864;60.554;2023-02-02T05:56:40;78148.78;;;-143.60;75.63
68329;BME280;55182;56.864;60.554;2023-02-02T05:59:06;78140.75;;;-143.60;75.23
68329;BME280;55182;56.864;60.554;2023-02-02T06:01:32;78120.66;;;-143.60;75.06
68329;BME280;55182;56.864;60.554;2023-02-02T06:03:57;78114.63;;;-143.60;75.08
68329;BME280;55182;56.864;60.554;2023-02-02T06:06:23;78104.56;;;-143.60;74.84
68329;BME280;55182;56.864;60.554;2023-02-02T06:08:49;78100.53;;;-143.60;74.67
68329;BME280;55182;56.864;60.554;2023-02-02T06:11:15;78094.50;;;-143.60;74.46
68329;BME280;55182;56.864;60.554;2023-02-02T06:13:41;78084.47;;;-143.60;74.14
68329;BME280;55182;56.864;60.554;2023-02-02T06:16:07;78074.41;;;-143.60;74.12
68329;BME280;55182;56.864;60.554;2023-02-02T06:18:33;78066.38;;;-143.60;73.95
68329;BME280;55182;56.864;60.554;2023-02-02T06:21:00;78062.34;;;-143.60;74.02
68329;BME280;55182;56.864;60.554;2023-02-02T06:23:27;78052.28;;;-143.60;73.75
68329;BME280;55182;56.864;60.554;2023-02-02T06:25:53;78040.22;;;-143.60;73.75
68329;BME280;55182;56.864;60.554;2023-02-02T06:28:19;78020.13;;;-143.60;73.44
68329;BME280;55182;56.864;60.554;2023-02-02T06:30:44;78000.03;;;-143.60;73.46
68329;BME280;55182;56.864;60.554;2023-02-02T06:33:10;77989.97;;;-143.60;73.64
68329;BME280;55182;56.864;60.554;2023-02-02T06:35:36;77955.78;;;-143.60;73.49
68329;BME280;55182;56.864;60.554;2023-02-02T06:38:02;77943.72;;;-143.60;73.16
68329;BME280;55182;56.864;60.554;2023-02-02T06:40:28;77927.66;;;-143.60;72.68
68329;BME280;55182;56.864;60.554;2023-02-02T06:42:54;77915.59;;;-143.60;72.55
68329;BME280;55182;56.864;60.554;2023-02-02T06:45:20;77905.53;;;-143.60;72.58
68329;BME280;55182;56.864;60.554;2023-02-02T06:47:46;77899.50;;;-143.60;72.60
68329;BME280;55182;56.864;60.554;2023-02-02T06:50:11;77887.44;;;-143.60;72.55
68329;BME280;55182;56.864;60.554;2023-02-02T06:52:37;77879.41;;;-143.60;72.13
68329;BME280;55182;56.864;60.554;2023-02-02T06:55:02;77859.28;;;-143.60;71.86
68329;BME280;55182;56.864;60.554;2023-02-02T06:57:28;77845.22;;;-143.60;71.76
68329;BME280;55182;56.864;60.554;2023-02-02T06:59:54;77831.16;;;-143.60;71.15
68329;BME280;55182;56.864;60.554;2023-02-02T07:02:20;77819.09;;;-143.60;70.38
68329;BME280;55182;56.864;60.554;2023-02-02T07:04:45;77805.00;;;-143.60;70.19
68329;BME280;55182;56.864;60.554;2023-02-02T07:07:11;77788.94;;;-143.60;69.85
68329;BME280;55182;56.864;60.554;2023-02-02T07:09:37;77772.84;;;-143.60;69.60
68329;BME280;55182;56.864;60.554;2023-02-02T07:12:03;77760.78;;;-143.60;69.09
68329;BME280;55182;56.864;60.554;2023-02-02T07:14:28;77746.72;;;-143.60;68.92
68329;BME280;55182;56.864;60.554;2023-02-02T07:16:54;77722.59;;;-143.60;68.94
68329;BME280;55182;56.864;60.554;2023-02-02T07:19:20;77700.47;;;-143.60;68.83
68329;BME280;55182;56.864;60.554;2023-02-02T07:21:46;77686.41;;;-143.60;68.17
68329;BME280;55182;56.864;60.554;2023-02-02T07:24:11;77680.38;;;-143.60;67.77
68329;BME280;55182;56.864;60.554;2023-02-02T07:26:37;77662.28;;;-143.60;67.44
68329;BME280;55182;56.864;60.554;2023-02-02T07:29:03;77660.28;;;-143.60;67.35
68329;BME280;55182;56.864;60.554;2023-02-02T07:31:29;77642.19;;;-143.60;67.01
68329;BME280;55182;56.864;60.554;2023-02-02T07:33:55;77626.09;;;-143.60;66.86
68329;BME280;55182;56.864;60.554;2023-02-02T07:36:21;77614.03;;;-143.60;66.65
68329;BME280;55182;56.864;60.554;2023-02-02T07:38:48;77604.00;;;-143.60;66.39
68329;BME280;55182;56.864;60.554;2023-02-02T07:41:15;77587.91;;;-143.60;66.47
68329;BME280;55182;56.864;60.554;2023-02-02T07:43:40;77573.84;;;-143.60;66.63
68329;BME280;55182;56.864;60.554;2023-02-02T07:46:06;77563.78;;;-143.60;66.38
68329;BME280;55182;56.864;60.554;2023-02-02T07:48:33;77553.72;;;-143.60;66.36
68329;BME280;55182;56.864;60.554;2023-02-02T07:50:59;77533.63;;;-143.60;66.73
68329;BME280;55182;56.864;60.554;2023-02-02T07:53:25;77503.47;;;-143.60;66.68
68329;BME280;55182;56.864;60.554;2023-02-02T07:55:50;77477.34;;;-143.60;66.41
68329;BME280;55182;56.864;60.554;2023-02-02T07:58:16;77447.19;;;-143.60;66.14
68329;BME280;55182;56.864;60.554;2023-02-02T08:00:41;77427.09;;;-143.60;65.83
68329;BME280;55182;56.864;60.554;2023-02-02T08:03:09;77411.00;;;-143.60;65.86
68329;BME280;55182;56.864;60.554;2023-02-02T08:05:35;77394.94;;;-143.60;65.60
68329;BME280;55182;56.864;60.554;2023-02-02T08:08:00;77376.84;;;-143.60;65.69
68329;BME280;55182;56.864;60.554;2023-02-02T08:10:26;77348.69;;;-143.60;65.17
68329;BME280;55182;56.864;60.554;2023-02-02T08:12:51;77324.56;;;-143.60;64.18
68329;BME280;55182;56.864;60.554;2023-02-02T08:15:17;77306.50;;;-143.60;64.40
68329;BME280;55182;56.864;60.554;2023-02-02T08:17:45;77280.34;;;-143.60;63.40
68329;BME280;55182;56.864;60.554;2023-02-02T08:20:11;77256.22;;;-143.60;62.36
68329;BME280;55182;56.864;60.554;2023-02-02T08:22:37;77232.13;;;-143.60;62.64
68329;BME280;55182;56.864;60.554;2023-02-02T08:25:02;77216.03;;;-143.60;62.83
68329;BME280;55182;56.864;60.554;2023-02-02T08:27:28;77191.91;;;-143.60;61.75
68329;BME280;55182;56.864;60.554;2023-02-02T08:29:53;77167.78;;;-143.60;60.51
68329;BME280;55182;56.864;60.554;2023-02-02T08:32:19;77151.72;;;-143.60;60.81
68329;BME280;55182;56.864;60.554;2023-02-02T08:34:46;77119.56;;;-143.60;59.69
68329;BME280;55182;56.864;60.554;2023-02-02T08:37:12;77107.50;;;-143.60;60.16
68329;BME280;55182;56.864;60.554;2023-02-02T08:39:37;77099.44;;;-143.60;59.26
68329;BME280;55182;56.864;60.554;2023-02-02T08:42:03;77081.38;;;-143.60;58.54
68329;BME280;55182;56.864;60.554;2023-02-02T08:44:28;77063.28;;;-143.60;59.04
68329;BME280;55182;56.864;60.554;2023-02-02T08:46:54;77059.25;;;-143.60;59.42
68329;BME280;55182;56.864;60.554;2023-02-02T08:49:20;77055.22;;;-143.60;59.41
68329;BME280;55182;56.864;60.554;2023-02-02T08:51:45;77049.22;;;-143.60;59.08
68329;BME280;55182;56.864;60.554;2023-02-02T08:54:11;77039.16;;;-143.60;59.40
68329;BME280;55182;56.864;60.554;2023-02-02T08:56:36;77033.13;;;-143.60;59.29
68329;BME280;55182;56.864;60.554;2023-02-02T08:59:02;77031.13;;;-143.60;58.77
68329;BME280;55182;56.864;60.554;2023-02-02T09:01:28;77019.06;;;-143.60;59.31
68329;BME280;55182;56.864;60.554;2023-02-02T09:04:13;77013.03;;;-143.60;59.11
68329;BME280;55182;56.864;60.554;2023-02-02T09:06:39;77002.97;;;-143.60;58.38
68329;BME280;55182;56.864;60.554;2023-02-02T09:09:05;76982.88;;;-143.60;57.48
68329;BME280;55182;56.864;60.554;2023-02-02T09:11:31;76970.81;;;-143.60;57.34
68329;BME280;55182;56.864;60.554;2023-02-02T09:13:57;76950.72;;;-143.60;57.46
68329;BME280;55182;56.864;60.554;2023-02-02T09:16:24;76934.63;;;-143.60;57.30
68329;BME280;55182;56.864;60.554;2023-02-02T09:18:50;76922.59;;;-143.60;56.98
68329;BME280;55182;56.864;60.554;2023-02-02T09:21:16;76912.53;;;-143.60;56.68
68329;BME280;55182;56.864;60.554;2023-02-02T09:23:42;76898.47;;;-143.60;56.55
68329;BME280;55182;56.864;60.554;2023-02-02T09:26:12;76878.38;;;-143.60;56.05
68329;BME280;55182;56.864;60.554;2023-02-02T09:28:38;76872.34;;;-143.60;55.68
68329;BME280;55182;56.864;60.554;2023-02-02T09:31:04;76874.34;;;-143.60;55.77
68329;BME280;55182;56.864;60.554;2023-02-02T09:33:30;76872.34;;;-143.60;55.33
68329;BME280;55182;56.864;60.554;2023-02-02T09:35:55;76854.25;;;-143.60;55.78
68329;BME280;55182;56.864;60.554;2023-02-02T09:38:27;76842.19;;;-143.60;55.15
68329;BME280;55182;56.864;60.554;2023-02-02T09:40:52;76826.09;;;-143.60;55.41
68329;BME280;55182;56.864;60.554;2023-02-02T09:46:06;76797.97;;;-143.60;55.14
68329;BME280;55182;56.864;60.554;2023-02-02T09:48:37;76791.94;;;-143.60;54.45
68329;BME280;55182;56.864;60.554;2023-02-02T09:51:08;76777.88;;;-143.60;55.08
68329;BME280;55182;56.864;60.554;2023-02-02T09:56:03;76777.88;;;-143.60;54.50
68329;BME280;55182;56.864;60.554;2023-02-02T09:58:35;76791.94;;;-143.60;54.85
68329;BME280;55182;56.864;60.554;2023-02-02T10:01:09;76797.97;;;-143.60;54.65
68329;BME280;55182;56.864;60.554;2023-02-02T10:03:38;76804.00;;;-143.60;54.90
68329;BME280;55182;56.864;60.554;2023-02-02T10:08:36;76832.13;;;-143.60;55.67
68329;BME280;55182;56.864;60.554;2023-02-02T10:11:18;76846.22;;;-143.60;55.96
68329;BME280;55182;56.864;60.554;2023-02-02T10:13:46;76854.25;;;-143.60;56.02
68329;BME280;55182;56.864;60.554;2023-02-02T10:16:14;76864.28;;;-143.60;55.49
68329;BME280;55182;56.864;60.554;2023-02-02T10:18:43;76864.28;;;-143.60;54.58
68329;BME280;55182;56.864;60.554;2023-02-02T10:21:14;76866.31;;;-143.60;54.82
68329;BME280;55182;56.864;60.554;2023-02-02T10:23:44;76874.34;;;-143.60;54.66
68329;BME280;55182;56.864;60.554;2023-02-02T10:26:20;76886.41;;;-143.60;54.94
68329;BME280;55182;56.864;60.554;2023-02-02T10:31:54;76912.53;;;-143.60;55.46
68329;BME280;55182;56.864;60.554;2023-02-02T10:42:32;76950.72;;;-143.60;55.00
68329;BME280;55182;56.864;60.554;2023-02-02T10:45:03;76954.75;;;-143.60;54.43
68329;BME280;55182;56.864;60.554;2023-02-02T10:47:35;76946.69;;;-143.60;54.55
68329;BME280;55182;56.864;60.554;2023-02-02T10:52:37;76942.69;;;-143.60;53.60
68329;BME280;55182;56.864;60.554;2023-02-02T10:55:06;76942.69;;;-143.60;53.64
68329;BME280;55182;56.864;60.554;2023-02-02T11:02:34;76934.63;;;-143.60;52.20
68329;BME280;55182;56.864;60.554;2023-02-02T11:04:59;76926.59;;;-143.60;52.15
68329;BME280;55182;56.864;60.554;2023-02-02T11:07:25;76928.63;;;-143.60;51.67
68329;BME280;55182;56.864;60.554;2023-02-02T11:09:50;76928.63;;;-143.60;51.81
68329;BME280;55182;56.864;60.554;2023-02-02T11:12:32;76928.63;;;-143.60;51.67
68329;BME280;55182;56.864;60.554;2023-02-02T11:15:01;76936.66;;;-143.60;51.93
68329;BME280;55182;56.864;60.554;2023-02-02T11:17:27;76942.69;;;-143.60;52.13
68329;BME280;55182;56.864;60.554;2023-02-02T11:19:53;76950.72;;;-143.60;52.02
68329;BME280;55182;56.864;60.554;2023-02-02T11:22:32;76958.75;;;-143.60;52.47
68329;BME280;55182;56.864;60.554;2023-02-02T11:25:05;76950.72;;;-143.60;52.15
68329;BME280;55182;56.864;60.554;2023-02-02T11:27:37;76954.75;;;-143.60;52.32
68329;BME280;55182;56.864;60.554;2023-02-02T11:30:11;76948.72;;;-143.60;52.29
68329;BME280;55182;56.864;60.554;2023-02-02T11:32:38;76948.72;;;-143.60;52.66
68329;BME280;55182;56.864;60.554;2023-02-02T11:37:36;76956.75;;;-143.60;52.80
68329;BME280;55182;56.864;60.554;2023-02-02T11:40:45;76960.78;;;-143.60;52.55
68329;BME280;55182;56.864;60.554;2023-02-02T11:42:51;76964.78;;;-143.60;52.95
68329;BME280;55182;56.864;60.554;2023-02-02T11:45:17;76966.81;;;-143.60;52.59
68329;BME280;55182;56.864;60.554;2023-02-02T11:47:44;76970.81;;;-143.60;53.13
68329;BME280;55182;56.864;60.554;2023-02-02T11:50:20;76978.84;;;-143.60;53.36
68329;BME280;55182;56.864;60.554;2023-02-02T11:52:47;76978.84;;;-143.60;53.20
68329;BME280;55182;56.864;60.554;2023-02-02T11:55:14;76986.91;;;-143.60;53.53
68329;BME280;55182;56.864;60.554;2023-02-02T11:58:08;76994.94;;;-143.60;53.28
68329;BME280;55182;56.864;60.554;2023-02-02T12:00:28;77002.97;;;-143.60;53.62
68329;BME280;55182;56.864;60.554;2023-02-02T12:02:55;77023.06;;;-143.60;54.18
68329;BME280;55182;56.864;60.554;2023-02-02T12:07:46;77063.28;;;-143.60;55.17
68329;BME280;55182;56.864;60.554;2023-02-02T12:10:15;77079.34;;;-143.60;55.56
68329;BME280;55182;56.864;60.554;2023-02-02T12:12:51;77099.44;;;-143.60;56.04
68329;BME280;55182;56.864;60.554;2023-02-02T12:18:01;77147.69;;;-143.60;56.61
68329;BME280;55182;56.864;60.554;2023-02-02T12:20:38;77175.84;;;-143.60;57.25
68329;BME280;55182;56.864;60.554;2023-02-02T12:25:53;77212.00;;;-143.60;58.36
68329;BME280;55182;56.864;60.554;2023-02-02T12:33:52;77252.22;;;-143.60;59.63
68329;BME280;55182;56.864;60.554;2023-02-02T12:36:21;77262.25;;;-143.60;59.90
68329;BME280;55182;56.864;60.554;2023-02-02T12:49:30;77312.50;;;-143.60;61.46
68329;BME280;55182;56.864;60.554;2023-02-02T12:52:05;77318.53;;;-143.60;61.75
68329;BME280;55182;56.864;60.554;2023-02-02T12:57:01;77318.53;;;-143.60;61.31
68329;BME280;55182;56.864;60.554;2023-02-02T13:02:19;77266.28;;;-143.60;59.19
68329;BME280;55182;56.864;60.554;2023-02-02T13:07:31;77191.91;;;-143.60;57.00
68329;BME280;55182;56.864;60.554;2023-02-02T13:10:07;77173.81;;;-143.60;56.68
68329;BME280;55182;56.864;60.554;2023-02-02T13:12:38;77177.84;;;-143.60;56.87
68329;BME280;55182;56.864;60.554;2023-02-02T13:15:08;77183.88;;;-143.60;56.89
68329;BME280;55182;56.864;60.554;2023-02-02T13:17:40;77193.94;;;-143.60;56.64
68329;BME280;55182;56.864;60.554;2023-02-02T13:20:19;77195.94;;;-143.60;56.38
68329;BME280;55182;56.864;60.554;2023-02-02T13:22:48;77208.00;;;-143.60;57.19
68329;BME280;55182;56.864;60.554;2023-02-02T13:25:18;77222.06;;;-143.60;57.25
68329;BME280;55182;56.864;60.554;2023-02-02T13:27:45;77234.13;;;-143.60;57.50
68329;BME280;55182;56.864;60.554;2023-02-02T13:32:43;77280.34;;;-143.60;57.95
68329;BME280;55182;56.864;60.554;2023-02-02T13:35:19;77296.44;;;-143.60;58.63
68329;BME280;55182;56.864;60.554;2023-02-02T13:37:50;77316.53;;;-143.60;59.34
68329;BME280;55182;56.864;60.554;2023-02-02T13:45:20;77334.63;;;-143.60;59.57
68329;BME280;55182;56.864;60.554;2023-02-02T13:47:56;77318.53;;;-143.60;59.15
68329;BME280;55182;56.864;60.554;2023-02-02T13:50:24;77304.47;;;-143.60;59.11
68329;BME280;55182;56.864;60.554;2023-02-02T13:55:29;77314.53;;;-143.60;59.27
68329;BME280;55182;56.864;60.554;2023-02-02T14:00:32;77330.59;;;-143.60;58.86
68329;BME280;55182;56.864;60.554;2023-02-02T14:03:00;77336.63;;;-143.60;58.88
68329;BME280;55182;56.864;60.554;2023-02-02T14:05:36;77328.59;;;-143.60;58.57
68329;BME280;55182;56.864;60.554;2023-02-02T14:08:20;77332.63;;;-143.60;58.21
68329;BME280;55182;56.864;60.554;2023-02-02T14:13:18;77308.50;;;-143.60;57.75
68329;BME280;55182;56.864;60.554;2023-02-02T14:15:45;77312.50;;;-143.60;57.50